sensor_id;sensor_type;location;lat;lon;timestamp;P1;durP1;ratioP1;P2;durP2;ratioP2
21000;SDS011;10658;50.920;12.238;2024-03-23T00:57:27;23.52;;;12.60;;
21000;SDS011;10658;50.920;12.238;2024-03-23T01:01:27;20.45;;;12.07;;
21000;SDS011;10658;50.920;12.238;2024-03-23T01:05:28;20.27;;;12.23;;
21000;SDS011;10658;50.920;12.238;2024-03-23T01:09:29;17.77;;;10.98;;
21000;SDS011;10658;50.920;12.238;2024-03-23T01:13:30;45.28;;;22.67;;
21000;SDS011;10658;50.920;12.238;2024-03-23T01:17:31;39.80;;;21.38;;
21000;SDS011;10658;50.920;12.238;2024-03-23T01:21:32;41.42;;;21.88;;
21000;SDS011;10658;50.920;12.238;2024-03-23T01:25:32;60.92;;;24.77;;
21000;SDS011;10658;50.920;12.238;2024-03-23T01:29:33;43.33;;;24.05;;
21000;SDS011;10658;50.920;12.238;2024-03-23T01:33:34;50.25;;;23.60;;
21000;SDS011;10658;50.920;12.238;2024-03-23T01:37:35;39.63;;;21.48;;
21000;SDS011;10658;50.920;12.238;2024-03-23T01:41:35;40.45;;;21.38;;
21000;SDS011;10658;50.920;12.238;2024-03-23T01:45:38;48.22;;;24.02;;
21000;SDS011;10658;50.920;12.238;2024-03-23T01:49:39;36.00;;;19.85;;
21000;SDS011;10658;50.920;12.238;2024-03-23T01:53:40;40.75;;;21.85;;
21000;SDS011;10658;50.920;12.238;2024-03-23T01:57:41;39.08;;;22.10;;
21000;SDS011;10658;50.920;12.238;2024-03-23T02:01:42;43.08;;;22.02;;
21000;SDS011;10658;50.920;12.238;2024-03-23T02:05:42;39.28;;;21.35;;
21000;SDS011;10658;50.920;12.238;2024-03-23T02:09:43;43.22;;;22.45;;
21000;SDS011;10658;50.920;12.238;2024-03-23T02:13:44;37.47;;;20.35;;
21000;SDS011;10658;50.920;12.238;2024-03-23T02:17:45;41.08;;;21.08;;
21000;SDS011;10658;50.920;12.238;2024-03-23T02:21:46;45.70;;;23.70;;
21000;SDS011;10658;50.920;12.238;2024-03-23T02:25:47;46.47;;;23.63;;
21000;SDS011;10658;50.920;12.238;2024-03-23T02:29:48;47.22;;;25.73;;
21000;SDS011;10658;50.920;12.238;2024-03-23T02:33:49;37.65;;;21.90;;
21000;SDS011;10658;50.920;12.238;2024-03-23T02:37:50;42.05;;;21.30;;
21000;SDS011;10658;50.920;12.238;2024-03-23T02:41:50;39.13;;;21.00;;
21000;SDS011;10658;50.920;12.238;2024-03-23T02:45:51;42.72;;;22.15;;
21000;SDS011;10658;50.920;12.238;2024-03-23T02:49:52;46.55;;;24.02;;
21000;SDS011;10658;50.920;12.238;2024-03-23T02:53:54;43.47;;;21.85;;
21000;SDS011;10658;50.920;12.238;2024-03-23T02:57:55;48.17;;;23.80;;
21000;SDS011;10658;50.920;12.238;2024-03-23T03:01:56;48.22;;;24.48;;
21000;SDS011;10658;50.920;12.238;2024-03-23T03:05:57;47.80;;;22.45;;
21000;SDS011;10658;50.920;12.238;2024-03-23T03:09:58;42.38;;;21.67;;
21000;SDS011;10658;50.920;12.238;2024-03-23T03:13:58;45.97;;;23.20;;
21000;SDS011;10658;50.920;12.238;2024-03-23T03:18:00;38.95;;;21.52;;
21000;SDS011;10658;50.920;12.238;2024-03-23T03:22:01;40.60;;;21.60;;
21000;SDS011;10658;50.920;12.238;2024-03-23T03:26:01;40.40;;;21.20;;
21000;SDS011;10658;50.920;12.238;2024-03-23T03:30:02;45.47;;;22.00;;
21000;SDS011;10658;50.920;12.238;2024-03-23T03:34:06;40.15;;;21.17;;
21000;SDS011;10658;50.920;12.238;2024-03-23T03:38:06;32.78;;;17.27;;
21000;SDS011;10658;50.920;12.238;2024-03-23T03:42:07;38.15;;;18.95;;
21000;SDS011;10658;50.920;12.238;2024-03-23T03:46:08;38.53;;;20.70;;
21000;SDS011;10658;50.920;12.238;2024-03-23T03:50:10;37.28;;;21.08;;
21000;SDS011;10658;50.920;12.238;2024-03-23T03:54:10;34.92;;;18.75;;
21000;SDS011;10658;50.920;12.238;2024-03-23T03:58:11;34.58;;;18.60;;
21000;SDS011;10658;50.920;12.238;2024-03-23T04:02:12;36.50;;;19.27;;
21000;SDS011;10658;50.920;12.238;2024-03-23T04:06:18;37.75;;;20.10;;
21000;SDS011;10658;50.920;12.238;2024-03-23T04:10:20;40.08;;;20.15;;
21000;SDS011;10658;50.920;12.238;2024-03-23T04:14:21;37.03;;;19.38;;
21000;SDS011;10658;50.920;12.238;2024-03-23T04:18:23;36.22;;;21.02;;
21000;SDS011;10658;50.920;12.238;2024-03-23T04:22:24;38.88;;;20.92;;
21000;SDS011;10658;50.920;12.238;2024-03-23T04:26:26;37.65;;;20.95;;
21000;SDS011;10658;50.920;12.238;2024-03-23T04:30:27;36.92;;;18.48;;
21000;SDS011;10658;50.920;12.238;2024-03-23T04:34:29;38.05;;;20.38;;
21000;SDS011;10658;50.920;12.238;2024-03-23T04:38:30;34.63;;;19.35;;
21000;SDS011;10658;50.920;12.238;2024-03-23T04:42:31;39.85;;;20.80;;
21000;SDS011;10658;50.920;12.238;2024-03-23T04:46:32;39.83;;;20.65;;
21000;SDS011;10658;50.920;12.238;2024-03-23T04:50:33;39.95;;;21.23;;
21000;SDS011;10658;50.920;12.238;2024-03-23T04:54:33;33.53;;;19.10;;
21000;SDS011;10658;50.920;12.238;2024-03-23T04:58:35;46.70;;;23.02;;
21000;SDS011;10658;50.920;12.238;2024-03-23T05:02:35;36.88;;;18.42;;
21000;SDS011;10658;50.920;12.238;2024-03-23T05:06:36;33.33;;;19.02;;
21000;SDS011;10658;50.920;12.238;2024-03-23T05:10:37;29.73;;;17.25;;
21000;SDS011;10658;50.920;12.238;2024-03-23T05:14:38;35.40;;;19.30;;
21000;SDS011;10658;50.920;12.238;2024-03-23T05:18:39;35.40;;;19.15;;
21000;SDS011;10658;50.920;12.238;2024-03-23T05:22:39;32.38;;;19.75;;
21000;SDS011;10658;50.920;12.238;2024-03-23T05:26:40;33.60;;;17.60;;
21000;SDS011;10658;50.920;12.238;2024-03-23T05:30:41;37.20;;;18.85;;
21000;SDS011;10658;50.920;12.238;2024-03-23T05:34:41;35.20;;;20.05;;
21000;SDS011;10658;50.920;12.238;2024-03-23T05:38:44;38.30;;;19.15;;
21000;SDS011;10658;50.920;12.238;2024-03-23T05:42:46;34.58;;;17.40;;
21000;SDS011;10658;50.920;12.238;2024-03-23T05:46:47;30.63;;;18.20;;
21000;SDS011;10658;50.920;12.238;2024-03-23T05:50:49;37.85;;;16.98;;
21000;SDS011;10658;50.920;12.238;2024-03-23T05:54:50;29.92;;;17.08;;
21000;SDS011;10658;50.920;12.238;2024-03-23T05:58:51;39.10;;;20.40;;
21000;SDS011;10658;50.920;12.238;2024-03-23T06:02:52;40.00;;;21.60;;
21000;SDS011;10658;50.920;12.238;2024-03-23T06:06:52;32.33;;;16.77;;
21000;SDS011;10658;50.920;12.238;2024-03-23T06:10:53;32.35;;;17.23;;
21000;SDS011;10658;50.920;12.238;2024-03-23T06:14:54;31.95;;;18.50;;
21000;SDS011;10658;50.920;12.238;2024-03-23T06:18:55;32.13;;;17.55;;
21000;SDS011;10658;50.920;12.238;2024-03-23T06:22:57;30.60;;;16.75;;
21000;SDS011;10658;50.920;12.238;2024-03-23T06:26:58;31.40;;;17.15;;
21000;SDS011;10658;50.920;12.238;2024-03-23T06:30:59;38.92;;;19.88;;
21000;SDS011;10658;50.920;12.238;2024-03-23T06:34:59;35.03;;;18.23;;
21000;SDS011;10658;50.920;12.238;2024-03-23T06:39:00;30.58;;;16.27;;
21000;SDS011;10658;50.920;12.238;2024-03-23T06:43:01;29.27;;;16.10;;
21000;SDS011;10658;50.920;12.238;2024-03-23T06:47:02;27.20;;;16.63;;
21000;SDS011;10658;50.920;12.238;2024-03-23T06:51:03;29.55;;;16.33;;
21000;SDS011;10658;50.920;12.238;2024-03-23T06:55:04;28.73;;;15.00;;
21000;SDS011;10658;50.920;12.238;2024-03-23T06:59:06;32.47;;;18.17;;
21000;SDS011;10658;50.920;12.238;2024-03-23T07:03:07;38.53;;;20.17;;
21000;SDS011;10658;50.920;12.238;2024-03-23T07:07:08;25.95;;;14.35;;
21000;SDS011;10658;50.920;12.238;2024-03-23T07:11:09;26.58;;;13.00;;
21000;SDS011;10658;50.920;12.238;2024-03-23T07:15:09;28.15;;;14.40;;
21000;SDS011;10658;50.920;12.238;2024-03-23T07:19:10;25.70;;;15.75;;
21000;SDS011;10658;50.920;12.238;2024-03-23T07:23:11;29.48;;;14.63;;
21000;SDS011;10658;50.920;12.238;2024-03-23T07:27:11;26.88;;;14.25;;
21000;SDS011;10658;50.920;12.238;2024-03-23T07:31:13;28.90;;;17.88;;
21000;SDS011;10658;50.920;12.238;2024-03-23T07:35:14;24.13;;;15.07;;
21000;SDS011;10658;50.920;12.238;2024-03-23T07:39:15;23.38;;;14.15;;
21000;SDS011;10658;50.920;12.238;2024-03-23T07:43:16;24.65;;;14.35;;
21000;SDS011;10658;50.920;12.238;2024-03-23T07:47:16;21.27;;;12.13;;
21000;SDS011;10658;50.920;12.238;2024-03-23T07:51:18;20.92;;;12.63;;
21000;SDS011;10658;50.920;12.238;2024-03-23T07:55:21;21.83;;;12.95;;
21000;SDS011;10658;50.920;12.238;2024-03-23T07:59:22;26.55;;;14.02;;
21000;SDS011;10658;50.920;12.238;2024-03-23T08:03:22;25.50;;;13.45;;
21000;SDS011;10658;50.920;12.238;2024-03-23T08:07:23;10.38;;;5.40;;
21000;SDS011;10658;50.920;12.238;2024-03-23T08:11:29;8.75;;;5.15;;
21000;SDS011;10658;50.920;12.238;2024-03-23T08:15:31;5.75;;;3.83;;
21000;SDS011;10658;50.920;12.238;2024-03-23T08:19:34;4.90;;;2.65;;
21000;SDS011;10658;50.920;12.238;2024-03-23T08:23:36;3.72;;;2.42;;
21000;SDS011;10658;50.920;12.238;2024-03-23T08:27:38;4.63;;;2.50;;
21000;SDS011;10658;50.920;12.238;2024-03-23T08:31:38;3.10;;;1.35;;
21000;SDS011;10658;50.920;12.238;2024-03-23T08:35:39;4.15;;;1.52;;
21000;SDS011;10658;50.920;12.238;2024-03-23T08:39:43;3.80;;;1.92;;
21000;SDS011;10658;50.920;12.238;2024-03-23T08:43:44;3.15;;;1.23;;
21000;SDS011;10658;50.920;12.238;2024-03-23T08:47:48;1.05;;;0.90;;
21000;SDS011;10658;50.920;12.238;2024-03-23T08:51:49;2.95;;;0.77;;
21000;SDS011;10658;50.920;12.238;2024-03-23T08:55:56;2.25;;;1.38;;
21000;SDS011;10658;50.920;12.238;2024-03-23T08:59:57;2.33;;;2.00;;
21000;SDS011;10658;50.920;12.238;2024-03-23T09:03:58;2.13;;;1.13;;
21000;SDS011;10658;50.920;12.238;2024-03-23T09:07:58;1.65;;;0.80;;
21000;SDS011;10658;50.920;12.238;2024-03-23T09:11:59;2.63;;;1.33;;
21000;SDS011;10658;50.920;12.238;2024-03-23T09:16:06;0.95;;;0.85;;
21000;SDS011;10658;50.920;12.238;2024-03-23T09:20:07;0.30;;;0.30;;
21000;SDS011;10658;50.920;12.238;2024-03-23T09:24:09;0.88;;;0.73;;
21000;SDS011;10658;50.920;12.238;2024-03-23T09:28:09;0.90;;;0.50;;
21000;SDS011;10658;50.920;12.238;2024-03-23T09:32:10;0.30;;;0.30;;
21000;SDS011;10658;50.920;12.238;2024-03-23T09:36:11;1.83;;;1.33;;
21000;SDS011;10658;50.920;12.238;2024-03-23T09:40:12;0.73;;;0.68;;
21000;SDS011;10658;50.920;12.238;2024-03-23T09:44:12;0.43;;;0.43;;
21000;SDS011;10658;50.920;12.238;2024-03-23T09:48:13;0.93;;;0.32;;
21000;SDS011;10658;50.920;12.238;2024-03-23T09:52:14;0.47;;;0.47;;
21000;SDS011;10658;50.920;12.238;2024-03-23T09:56:15;0.30;;;0.30;;
21000;SDS011;10658;50.920;12.238;2024-03-23T10:00:17;0.65;;;0.50;;
21000;SDS011;10658;50.920;12.238;2024-03-23T10:04:37;0.50;;;0.38;;
21000;SDS011;10658;50.920;12.238;2024-03-23T10:08:38;0.43;;;0.40;;
21000;SDS011;10658;50.920;12.238;2024-03-23T10:12:43;0.77;;;0.30;;
21000;SDS011;10658;50.920;12.238;2024-03-23T10:16:50;0.95;;;0.60;;
21000;SDS011;10658;50.920;12.238;2024-03-23T10:20:52;1.40;;;0.90;;
21000;SDS011;10658;50.920;12.238;2024-03-23T10:25:07;1.45;;;1.35;;
21000;SDS011;10658;50.920;12.238;2024-03-23T10:29:08;2.35;;;2.15;;
21000;SDS011;10658;50.920;12.238;2024-03-23T10:33:12;0.65;;;0.65;;
21000;SDS011;10658;50.920;12.238;2024-03-23T10:37:13;0.50;;;0.50;;
21000;SDS011;10658;50.920;12.238;2024-03-23T10:41:14;0.60;;;0.38;;
21000;SDS011;10658;50.920;12.238;2024-03-23T10:45:16;0.25;;;0.25;;
21000;SDS011;10658;50.920;12.238;2024-03-23T10:49:17;0.40;;;0.32;;
21000;SDS011;10658;50.920;12.238;2024-03-23T10:53:17;0.55;;;0.35;;
21000;SDS011;10658;50.920;12.238;2024-03-23T10:57:21;0.35;;;0.30;;
21000;SDS011;10658;50.920;12.238;2024-03-23T11:01:27;0.63;;;0.63;;
21000;SDS011;10658;50.920;12.238;2024-03-23T11:05:31;0.50;;;0.50;;
21000;SDS011;10658;50.920;12.238;2024-03-23T11:13:48;2.97;;;1.08;;
21000;SDS011;10658;50.920;12.238;2024-03-23T11:18:06;1.02;;;0.80;;
21000;SDS011;10658;50.920;12.238;2024-03-23T11:22:12;1.73;;;1.00;;
21000;SDS011;10658;50.920;12.238;2024-03-23T11:26:13;0.75;;;0.75;;
21000;SDS011;10658;50.920;12.238;2024-03-23T11:34:16;1.27;;;0.90;;
21000;SDS011;10658;50.920;12.238;2024-03-23T11:38:18;4.78;;;0.77;;
21000;SDS011;10658;50.920;12.238;2024-03-23T11:42:20;2.20;;;1.08;;
21000;SDS011;10658;50.920;12.238;2024-03-23T11:46:24;1.27;;;0.98;;
21000;SDS011;10658;50.920;12.238;2024-03-23T11:50:24;0.85;;;0.60;;
21000;SDS011;10658;50.920;12.238;2024-03-23T11:54:26;3.10;;;1.85;;
21000;SDS011;10658;50.920;12.238;2024-03-23T11:58:27;1.73;;;1.40;;
21000;SDS011;10658;50.920;12.238;2024-03-23T12:02:28;2.10;;;1.15;;
21000;SDS011;10658;50.920;12.238;2024-03-23T12:06:28;3.08;;;1.58;;
21000;SDS011;10658;50.920;12.238;2024-03-23T12:10:29;3.08;;;2.13;;
21000;SDS011;10658;50.920;12.238;2024-03-23T12:14:30;6.47;;;1.52;;
21000;SDS011;10658;50.920;12.238;2024-03-23T12:18:31;8.90;;;1.90;;
21000;SDS011;10658;50.920;12.238;2024-03-23T12:22:32;4.00;;;2.00;;
21000;SDS011;10658;50.920;12.238;2024-03-23T12:26:35;2.20;;;1.40;;
21000;SDS011;10658;50.920;12.238;2024-03-23T12:30:40;3.13;;;1.67;;
21000;SDS011;10658;50.920;12.238;2024-03-23T12:34:42;2.70;;;1.55;;
21000;SDS011;10658;50.920;12.238;2024-03-23T12:38:46;5.60;;;2.38;;
21000;SDS011;10658;50.920;12.238;2024-03-23T12:43:07;3.67;;;1.90;;
21000;SDS011;10658;50.920;12.238;2024-03-23T12:47:23;3.15;;;1.52;;
21000;SDS011;10658;50.920;12.238;2024-03-23T12:51:24;3.35;;;1.90;;
21000;SDS011;10658;50.920;12.238;2024-03-23T12:55:25;4.35;;;1.60;;
21000;SDS011;10658;50.920;12.238;2024-03-23T12:59:27;4.72;;;2.22;;
21000;SDS011;10658;50.920;12.238;2024-03-23T13:03:28;6.72;;;2.30;;
21000;SDS011;10658;50.920;12.238;2024-03-23T13:07:29;6.07;;;2.92;;
21000;SDS011;10658;50.920;12.238;2024-03-23T13:11:30;4.93;;;2.55;;
21000;SDS011;10658;50.920;12.238;2024-03-23T13:15:31;6.78;;;2.63;;
21000;SDS011;10658;50.920;12.238;2024-03-23T13:19:31;5.75;;;2.80;;
21000;SDS011;10658;50.920;12.238;2024-03-23T13:23:33;6.65;;;2.47;;
21000;SDS011;10658;50.920;12.238;2024-03-23T13:27:36;6.07;;;2.83;;
21000;SDS011;10658;50.920;12.238;2024-03-23T13:31:36;6.80;;;3.10;;
21000;SDS011;10658;50.920;12.238;2024-03-23T13:35:37;4.80;;;2.50;;
21000;SDS011;10658;50.920;12.238;2024-03-23T13:39:38;6.22;;;3.10;;
21000;SDS011;10658;50.920;12.238;2024-03-23T13:43:38;4.05;;;2.58;;
21000;SDS011;10658;50.920;12.238;2024-03-23T13:47:40;4.63;;;2.72;;
21000;SDS011;10658;50.920;12.238;2024-03-23T13:51:41;7.13;;;2.50;;
21000;SDS011;10658;50.920;12.238;2024-03-23T13:55:50;5.97;;;2.42;;
21000;SDS011;10658;50.920;12.238;2024-03-23T13:59:51;3.53;;;2.40;;
21000;SDS011;10658;50.920;12.238;2024-03-23T14:03:52;7.18;;;2.58;;
21000;SDS011;10658;50.920;12.238;2024-03-23T14:07:53;2.25;;;1.35;;
21000;SDS011;10658;50.920;12.238;2024-03-23T14:11:53;2.13;;;1.83;;
21000;SDS011;10658;50.920;12.238;2024-03-23T14:15:54;4.07;;;1.58;;
21000;SDS011;10658;50.920;12.238;2024-03-23T14:19:55;3.88;;;1.75;;
21000;SDS011;10658;50.920;12.238;2024-03-23T14:23:58;2.97;;;1.70;;
21000;SDS011;10658;50.920;12.238;2024-03-23T14:27:59;4.07;;;1.88;;
21000;SDS011;10658;50.920;12.238;2024-03-23T14:31:59;3.55;;;2.38;;
21000;SDS011;10658;50.920;12.238;2024-03-23T14:36:00;4.95;;;1.90;;
21000;SDS011;10658;50.920;12.238;2024-03-23T14:40:01;3.63;;;1.75;;
21000;SDS011;10658;50.920;12.238;2024-03-23T14:44:03;3.97;;;1.85;;
21000;SDS011;10658;50.920;12.238;2024-03-23T14:48:04;3.17;;;2.13;;
21000;SDS011;10658;50.920;12.238;2024-03-23T14:52:09;4.88;;;2.00;;
21000;SDS011;10658;50.920;12.238;2024-03-23T14:56:09;3.72;;;1.90;;
21000;SDS011;10658;50.920;12.238;2024-03-23T15:00:13;2.45;;;1.90;;
21000;SDS011;10658;50.920;12.238;2024-03-23T15:04:15;4.07;;;1.98;;
21000;SDS011;10658;50.920;12.238;2024-03-23T15:08:16;5.88;;;2.47;;
21000;SDS011;10658;50.920;12.238;2024-03-23T15:12:17;3.13;;;1.63;;
21000;SDS011;10658;50.920;12.238;2024-03-23T15:16:18;4.07;;;1.65;;
21000;SDS011;10658;50.920;12.238;2024-03-23T15:20:21;3.05;;;1.70;;
21000;SDS011;10658;50.920;12.238;2024-03-23T15:24:22;2.38;;;2.17;;
21000;SDS011;10658;50.920;12.238;2024-03-23T15:28:23;3.35;;;1.92;;
21000;SDS011;10658;50.920;12.238;2024-03-23T15:32:26;3.70;;;2.33;;
21000;SDS011;10658;50.920;12.238;2024-03-23T15:36:27;3.47;;;2.58;;
21000;SDS011;10658;50.920;12.238;2024-03-23T15:40:28;5.93;;;2.30;;
21000;SDS011;10658;50.920;12.238;2024-03-23T15:44:29;4.68;;;2.58;;
21000;SDS011;10658;50.920;12.238;2024-03-23T15:48:30;6.78;;;2.97;;
21000;SDS011;10658;50.920;12.238;2024-03-23T15:52:32;2.90;;;2.10;;
21000;SDS011;10658;50.920;12.238;2024-03-23T15:56:32;3.80;;;1.88;;
21000;SDS011;10658;50.920;12.238;2024-03-23T16:00:33;3.58;;;1.90;;
21000;SDS011;10658;50.920;12.238;2024-03-23T16:04:40;1.92;;;1.73;;
21000;SDS011;10658;50.920;12.238;2024-03-23T16:08:45;3.58;;;1.67;;
21000;SDS011;10658;50.920;12.238;2024-03-23T16:12:46;4.22;;;1.45;;
21000;SDS011;10658;50.920;12.238;2024-03-23T16:16:46;3.13;;;1.52;;
21000;SDS011;10658;50.920;12.238;2024-03-23T16:20:54;2.47;;;1.30;;
21000;SDS011;10658;50.920;12.238;2024-03-23T16:25:00;3.95;;;1.60;;
21000;SDS011;10658;50.920;12.238;2024-03-23T16:29:01;2.05;;;1.50;;
21000;SDS011;10658;50.920;12.238;2024-03-23T16:33:02;3.00;;;2.10;;
21000;SDS011;10658;50.920;12.238;2024-03-23T16:37:07;3.67;;;1.38;;
21000;SDS011;10658;50.920;12.238;2024-03-23T16:41:11;4.80;;;1.85;;
21000;SDS011;10658;50.920;12.238;2024-03-23T16:45:18;3.78;;;1.50;;
21000;SDS011;10658;50.920;12.238;2024-03-23T16:49:21;4.25;;;1.83;;
21000;SDS011;10658;50.920;12.238;2024-03-23T16:53:22;3.15;;;1.58;;
21000;SDS011;10658;50.920;12.238;2024-03-23T16:57:23;5.13;;;2.30;;
21000;SDS011;10658;50.920;12.238;2024-03-23T17:01:24;4.57;;;2.08;;
21000;SDS011;10658;50.920;12.238;2024-03-23T17:05:27;2.60;;;1.63;;
21000;SDS011;10658;50.920;12.238;2024-03-23T17:09:28;3.33;;;1.77;;
21000;SDS011;10658;50.920;12.238;2024-03-23T17:13:31;2.90;;;1.58;;
21000;SDS011;10658;50.920;12.238;2024-03-23T17:17:32;2.53;;;1.50;;
21000;SDS011;10658;50.920;12.238;2024-03-23T17:21:36;2.70;;;1.98;;
21000;SDS011;10658;50.920;12.238;2024-03-23T17:25:41;4.38;;;1.70;;
21000;SDS011;10658;50.920;12.238;2024-03-23T17:29:41;5.40;;;1.95;;
21000;SDS011;10658;50.920;12.238;2024-03-23T17:33:42;6.38;;;2.10;;
21000;SDS011;10658;50.920;12.238;2024-03-23T17:37:44;2.97;;;1.90;;
21000;SDS011;10658;50.920;12.238;2024-03-23T17:41:49;3.97;;;2.20;;
21000;SDS011;10658;50.920;12.238;2024-03-23T17:45:50;2.05;;;1.73;;
21000;SDS011;10658;50.920;12.238;2024-03-23T17:50:00;2.28;;;1.55;;
21000;SDS011;10658;50.920;12.238;2024-03-23T17:54:02;1.70;;;1.60;;
21000;SDS011;10658;50.920;12.238;2024-03-23T17:58:05;2.97;;;1.75;;
21000;SDS011;10658;50.920;12.238;2024-03-23T18:02:06;3.70;;;1.58;;
21000;SDS011;10658;50.920;12.238;2024-03-23T18:06:07;5.13;;;2.60;;
21000;SDS011;10658;50.920;12.238;2024-03-23T18:10:08;1.95;;;1.45;;
21000;SDS011;10658;50.920;12.238;2024-03-23T18:14:09;2.17;;;1.60;;
21000;SDS011;10658;50.920;12.238;2024-03-23T18:18:11;1.63;;;1.30;;
21000;SDS011;10658;50.920;12.238;2024-03-23T18:22:13;2.90;;;1.20;;
21000;SDS011;10658;50.920;12.238;2024-03-23T18:26:15;3.13;;;1.48;;
21000;SDS011;10658;50.920;12.238;2024-03-23T18:30:16;2.92;;;1.13;;
21000;SDS011;10658;50.920;12.238;2024-03-23T18:34:17;2.85;;;1.52;;
21000;SDS011;10658;50.920;12.238;2024-03-23T18:38:21;5.63;;;3.15;;
21000;SDS011;10658;50.920;12.238;2024-03-23T18:42:21;3.33;;;2.03;;
21000;SDS011;10658;50.920;12.238;2024-03-23T18:46:22;4.30;;;2.53;;
21000;SDS011;10658;50.920;12.238;2024-03-23T18:50:24;3.35;;;1.65;;
21000;SDS011;10658;50.920;12.238;2024-03-23T18:54:24;1.98;;;1.08;;
21000;SDS011;10658;50.920;12.238;2024-03-23T18:58:25;3.35;;;1.50;;
21000;SDS011;10658;50.920;12.238;2024-03-23T19:02:26;2.55;;;2.33;;
21000;SDS011;10658;50.920;12.238;2024-03-23T19:06:51;1.23;;;1.13;;
21000;SDS011;10658;50.920;12.238;2024-03-23T19:14:56;4.57;;;1.70;;
21000;SDS011;10658;50.920;12.238;2024-03-23T19:18:57;5.15;;;2.28;;
21000;SDS011;10658;50.920;12.238;2024-03-23T19:22:59;1.80;;;1.40;;
21000;SDS011;10658;50.920;12.238;2024-03-23T19:27:00;2.55;;;1.85;;
21000;SDS011;10658;50.920;12.238;2024-03-23T19:31:01;1.98;;;1.52;;
21000;SDS011;10658;50.920;12.238;2024-03-23T19:35:07;5.70;;;3.10;;
21000;SDS011;10658;50.920;12.238;2024-03-23T19:39:09;13.40;;;7.53;;
21000;SDS011;10658;50.920;12.238;2024-03-23T19:43:12;5.45;;;3.28;;
21000;SDS011;10658;50.920;12.238;2024-03-23T19:47:13;8.43;;;4.82;;
21000;SDS011;10658;50.920;12.238;2024-03-23T19:51:13;5.25;;;3.85;;
21000;SDS011;10658;50.920;12.238;2024-03-23T19:55:14;11.60;;;5.28;;
21000;SDS011;10658;50.920;12.238;2024-03-23T19:59:15;8.45;;;4.82;;
21000;SDS011;10658;50.920;12.238;2024-03-23T20:03:16;7.43;;;4.75;;
21000;SDS011;10658;50.920;12.238;2024-03-23T20:07:17;11.85;;;5.20;;
21000;SDS011;10658;50.920;12.238;2024-03-23T20:11:18;9.35;;;5.10;;
21000;SDS011;10658;50.920;12.238;2024-03-23T20:15:24;4.38;;;3.40;;
21000;SDS011;10658;50.920;12.238;2024-03-23T20:19:25;7.38;;;3.17;;
21000;SDS011;10658;50.920;12.238;2024-03-23T20:23:26;2.25;;;1.65;;
21000;SDS011;10658;50.920;12.238;2024-03-23T20:27:27;4.38;;;2.72;;
21000;SDS011;10658;50.920;12.238;2024-03-23T20:31:28;3.17;;;2.20;;
21000;SDS011;10658;50.920;12.238;2024-03-23T20:35:28;2.58;;;2.13;;
21000;SDS011;10658;50.920;12.238;2024-03-23T20:39:29;3.58;;;1.60;;
21000;SDS011;10658;50.920;12.238;2024-03-23T20:43:34;2.22;;;1.30;;
21000;SDS011;10658;50.920;12.238;2024-03-23T20:47:35;2.00;;;1.60;;
21000;SDS011;10658;50.920;12.238;2024-03-23T20:51:38;2.58;;;1.50;;
21000;SDS011;10658;50.920;12.238;2024-03-23T20:55:39;2.75;;;1.77;;
21000;SDS011;10658;50.920;12.238;2024-03-23T20:59:40;3.15;;;1.77;;
21000;SDS011;10658;50.920;12.238;2024-03-23T21:03:41;2.85;;;1.60;;
21000;SDS011;10658;50.920;12.238;2024-03-23T21:07:42;2.70;;;2.20;;
21000;SDS011;10658;50.920;12.238;2024-03-23T21:11:43;3.30;;;1.27;;
21000;SDS011;10658;50.920;12.238;2024-03-23T21:15:47;2.45;;;1.50;;
21000;SDS011;10658;50.920;12.238;2024-03-23T21:19:48;2.10;;;1.60;;
21000;SDS011;10658;50.920;12.238;2024-03-23T21:23:49;2.65;;;1.73;;
21000;SDS011;10658;50.920;12.238;2024-03-23T21:27:50;2.28;;;1.58;;
21000;SDS011;10658;50.920;12.238;2024-03-23T21:31:51;2.88;;;1.70;;
21000;SDS011;10658;50.920;12.238;2024-03-23T21:36:17;1.70;;;1.50;;
21000;SDS011;10658;50.920;12.238;2024-03-23T21:40:19;1.98;;;1.33;;
21000;SDS011;10658;50.920;12.238;2024-03-23T21:44:21;2.20;;;1.73;;
21000;SDS011;10658;50.920;12.238;2024-03-23T21:48:21;4.82;;;2.10;;
21000;SDS011;10658;50.920;12.238;2024-03-23T21:52:22;3.78;;;2.13;;
21000;SDS011;10658;50.920;12.238;2024-03-23T21:56:23;3.78;;;2.25;;
21000;SDS011;10658;50.920;12.238;2024-03-23T22:00:24;3.25;;;2.22;;
21000;SDS011;10658;50.920;12.238;2024-03-23T22:04:25;2.50;;;2.13;;
21000;SDS011;10658;50.920;12.238;2024-03-23T22:08:27;4.63;;;2.22;;
21000;SDS011;10658;50.920;12.238;2024-03-23T22:12:28;2.65;;;2.33;;
21000;SDS011;10658;50.920;12.238;2024-03-23T22:16:29;4.72;;;2.58;;
21000;SDS011;10658;50.920;12.238;2024-03-23T22:20:29;4.25;;;2.95;;
21000;SDS011;10658;50.920;12.238;2024-03-23T22:24:31;3.47;;;1.98;;
21000;SDS011;10658;50.920;12.238;2024-03-23T22:28:31;3.92;;;2.75;;
21000;SDS011;10658;50.920;12.238;2024-03-23T22:32:32;2.53;;;1.77;;
21000;SDS011;10658;50.920;12.238;2024-03-23T22:36:33;2.92;;;2.10;;
21000;SDS011;10658;50.920;12.238;2024-03-23T22:40:34;2.85;;;1.70;;
21000;SDS011;10658;50.920;12.238;2024-03-23T22:44:36;5.45;;;1.88;;
21000;SDS011;10658;50.920;12.238;2024-03-23T22:48:37;3.17;;;1.95;;
21000;SDS011;10658;50.920;12.238;2024-03-23T22:52:38;4.50;;;2.08;;
21000;SDS011;10658;50.920;12.238;2024-03-23T22:56:39;4.00;;;1.83;;
21000;SDS011;10658;50.920;12.238;2024-03-23T23:00:40;4.57;;;2.40;;
21000;SDS011;10658;50.920;12.238;2024-03-23T23:05:07;4.70;;;2.80;;
21000;SDS011;10658;50.920;12.238;2024-03-23T23:09:34;4.07;;;2.30;;
21000;SDS011;10658;50.920;12.238;2024-03-23T23:13:35;1.83;;;1.50;;
21000;SDS011;10658;50.920;12.238;2024-03-23T23:17:36;3.38;;;1.88;;
21000;SDS011;10658;50.920;12.238;2024-03-23T23:21:37;3.60;;;2.03;;
21000;SDS011;10658;50.920;12.238;2024-03-23T23:25:38;5.57;;;2.25;;
21000;SDS011;10658;50.920;12.238;2024-03-23T23:29:38;2.00;;;1.70;;
21000;SDS011;10658;50.920;12.238;2024-03-23T23:33:39;1.40;;;1.30;;
21000;SDS011;10658;50.920;12.238;2024-03-23T23:37:40;3.13;;;1.55;;
21000;SDS011;10658;50.920;12.238;2024-03-23T23:41:40;2.45;;;1.70;;
21000;SDS011;10658;50.920;12.238;2024-03-23T23:45:42;2.42;;;1.80;;
21000;SDS011;10658;50.920;12.238;2024-03-23T23:49:43;2.15;;;1.42;;
21000;SDS011;10658;50.920;12.238;2024-03-23T23:53:45;4.28;;;1.60;;
21000;SDS011;10658;50.920;12.238;2024-03-23T23:57:46;3.00;;;1.65;;
